Terminal Aerodrome Forecast
Issued by NWS Jackson, MS

Home | Current Version | Previous Version | Text Only | Print | Product List | Glossary On
Versions: 1 2 3 4 5 6 7 8 9 10 11 12 13 14
000
FTUS44 KJAN 010540
TAFJAN
TAF
KJAN 010540Z 0106/0206 18005KT P6SM FEW035 BKN050
     FM010900 16005KT P6SM VCSH SCT007 BKN015
     FM011400 18008KT 5SM -SHRA VCTS OVC035CB
     FM012100 17008KT P6SM VCTS BKN050CB
     FM020000 15006KT P6SM BKN050=

USA.gov is the U.S. government's official web portal to all federal, state and local government web resources and services.